createdAt,value
2023-01-23T00:00:04.775Z,101204.34
2023-01-23T00:02:32.894Z,101513.41
2023-01-23T00:05:00.757Z,101421.22
2023-01-23T00:07:30.363Z,101342.88
2023-01-23T00:09:58.268Z,101540.22
2023-01-23T00:12:27.141Z,101443.38
2023-01-23T00:14:54.927Z,101524.94
2023-01-23T00:17:23.013Z,101425.78
2023-01-23T00:19:50.942Z,101509.44
2023-01-23T00:22:19.004Z,101415.28
2023-01-23T00:24:48.382Z,101507.50
2023-01-23T00:27:16.169Z,101481.59
2023-01-23T00:29:44.033Z,101411.19
2023-01-23T00:32:12.099Z,101361.22
2023-01-23T00:34:39.929Z,101510.06
2023-01-23T00:37:07.813Z,101370.03
2023-01-23T00:39:35.617Z,101084.34
2023-01-23T00:42:05.400Z,101268.75
2023-01-23T00:44:37.299Z,101516.00
2023-01-23T00:47:06.394Z,101521.38
2023-01-23T00:49:35.240Z,101461.19
2023-01-23T00:52:03.030Z,101512.97
2023-01-23T00:54:31.984Z,101655.72
2023-01-23T00:56:59.760Z,101425.25
2023-01-23T00:59:29.002Z,101047.94
2023-01-23T01:01:56.799Z,101343.59
2023-01-23T01:04:24.665Z,101545.19
2023-01-23T01:06:52.494Z,101279.72
2023-01-23T01:09:20.381Z,101437.78
2023-01-23T01:11:48.170Z,101404.13
2023-01-23T01:14:17.027Z,101507.03
2023-01-23T01:16:46.732Z,101489.31
2023-01-23T01:19:14.715Z,101474.91
2023-01-23T01:21:42.642Z,101527.31
2023-01-23T01:24:11.512Z,101435.03
2023-01-23T01:26:40.284Z,101478.25
2023-01-23T01:29:09.700Z,101362.00
2023-01-23T01:31:38.075Z,101466.97
2023-01-23T01:34:07.431Z,101485.69
2023-01-23T01:36:35.461Z,101463.09
2023-01-23T01:39:03.274Z,101608.06
2023-01-23T01:41:31.104Z,101483.53
2023-01-23T01:44:00.341Z,101538.53
2023-01-23T01:46:28.306Z,101500.16
2023-01-23T01:49:08.270Z,101550.25
2023-01-23T01:51:38.569Z,101230.63
2023-01-23T01:54:11.672Z,101522.00
2023-01-23T01:56:41.458Z,101553.81
2023-01-23T01:59:10.710Z,101348.00
2023-01-23T02:01:39.051Z,101432.63
2023-01-23T02:04:08.291Z,101342.56
2023-01-23T02:06:36.116Z,101523.47
2023-01-23T02:09:05.889Z,101444.00
2023-01-23T02:11:33.755Z,101533.69
2023-01-23T02:14:01.647Z,101549.59
2023-01-23T02:16:31.538Z,101496.31
2023-01-23T02:19:01.807Z,101351.72
2023-01-23T02:24:17.592Z,101539.97
2023-01-23T02:26:46.840Z,101546.22
2023-01-23T02:29:14.841Z,101540.38
2023-01-23T02:31:44.459Z,101537.81
2023-01-23T02:34:12.590Z,101535.38
2023-01-23T02:36:40.361Z,101538.78
2023-01-23T02:39:09.127Z,101514.34
2023-01-23T02:41:37.640Z,101546.41
2023-01-23T02:44:10.388Z,101525.69
2023-01-23T02:46:38.029Z,101548.97
2023-01-23T02:49:05.778Z,101544.41
2023-01-23T02:51:33.477Z,101557.72
2023-01-23T02:54:01.355Z,101556.81
2023-01-23T02:56:29.228Z,101548.00
2023-01-23T02:59:14.794Z,101563.38
2023-01-23T03:01:43.940Z,101555.16
2023-01-23T03:04:11.738Z,101563.03
2023-01-23T03:06:39.394Z,101566.34
2023-01-23T03:09:09.446Z,101562.72
2023-01-23T03:11:38.034Z,101554.19
2023-01-23T03:14:06.168Z,101553.28
2023-01-23T03:16:36.042Z,101545.38
2023-01-23T03:19:08.832Z,101558.97
2023-01-23T03:21:37.397Z,101538.75
2023-01-23T03:24:05.685Z,101556.19
2023-01-23T03:26:33.398Z,101559.41
2023-01-23T03:29:18.652Z,101546.19
2023-01-23T03:31:46.365Z,101555.78
2023-01-23T03:34:17.846Z,101564.38
2023-01-23T03:36:45.537Z,101561.97
2023-01-23T03:39:31.055Z,101571.50
2023-01-23T03:41:58.682Z,101565.28
2023-01-23T03:44:26.386Z,101565.75
2023-01-23T03:46:54.017Z,101564.88
2023-01-23T03:49:23.141Z,101565.81
2023-01-23T03:51:50.797Z,101565.47
2023-01-23T03:54:18.908Z,101565.63
2023-01-23T03:56:46.722Z,101570.72
2023-01-23T03:59:14.499Z,101568.28
2023-01-23T04:01:42.484Z,101566.66
2023-01-23T04:04:10.205Z,101577.16
2023-01-23T04:06:39.227Z,101576.41
2023-01-23T04:09:07.090Z,101574.09
2023-01-23T04:11:34.757Z,101570.91
2023-01-23T04:14:02.510Z,101562.16
2023-01-23T04:16:30.219Z,101585.84
2023-01-23T04:18:57.946Z,101567.59
2023-01-23T04:21:25.596Z,101569.38
2023-01-23T04:23:54.586Z,101569.53
2023-01-23T04:26:22.377Z,101580.66
2023-01-23T04:28:50.341Z,101618.69
2023-01-23T04:31:18.159Z,101587.84
2023-01-23T04:33:45.902Z,101588.78
2023-01-23T04:36:13.719Z,101568.44
2023-01-23T04:38:41.369Z,101497.53
2023-01-23T04:41:10.862Z,101577.66
2023-01-23T04:43:38.512Z,101585.53
2023-01-23T04:46:06.371Z,101580.47
2023-01-23T04:48:34.211Z,101563.66
2023-01-23T04:51:02.144Z,101584.63
2023-01-23T04:53:29.968Z,101580.19
2023-01-23T04:55:57.618Z,101573.75
2023-01-23T04:58:26.738Z,101571.84
2023-01-23T05:00:54.421Z,101577.94
2023-01-23T05:03:22.207Z,101570.91
2023-01-23T05:05:49.895Z,101575.25
2023-01-23T05:08:17.670Z,101579.50
2023-01-23T05:10:45.720Z,101566.13
2023-01-23T05:13:13.349Z,101566.25
2023-01-23T05:15:42.543Z,101565.09
2023-01-23T05:18:10.371Z,101563.75
2023-01-23T05:20:38.086Z,101558.56
2023-01-23T05:23:05.875Z,101557.50
2023-01-23T05:25:33.525Z,101554.81
2023-01-23T05:28:01.286Z,101568.38
2023-01-23T05:30:28.951Z,101582.03
2023-01-23T05:32:58.086Z,101579.28
2023-01-23T05:35:25.699Z,101589.50
2023-01-23T05:37:53.538Z,101590.34
2023-01-23T05:40:21.777Z,101566.22
2023-01-23T05:42:49.855Z,101578.63
2023-01-23T05:45:17.753Z,101589.81
2023-01-23T05:47:45.625Z,101595.13
2023-01-23T05:50:17.030Z,101600.63
2023-01-23T05:52:44.751Z,101601.56
2023-01-23T05:55:12.530Z,101603.47
2023-01-23T05:57:40.280Z,101600.28
2023-01-23T06:00:10.234Z,101599.53
2023-01-23T06:02:38.092Z,101601.59
2023-01-23T06:05:06.695Z,101602.56
2023-01-23T06:07:35.854Z,101603.47
2023-01-23T06:10:03.510Z,101620.94
2023-01-23T06:12:31.291Z,101615.81
2023-01-23T06:14:59.042Z,101609.81
2023-01-23T06:17:26.808Z,101616.16
2023-01-23T06:19:54.452Z,101618.41
2023-01-23T06:22:22.136Z,101615.00
2023-01-23T06:24:52.577Z,101622.63
2023-01-23T06:27:20.313Z,101621.88
2023-01-23T06:29:48.333Z,101625.38
2023-01-23T06:32:16.004Z,101620.25
2023-01-23T06:34:43.994Z,101628.19
2023-01-23T06:37:11.685Z,101622.09
2023-01-23T06:39:39.572Z,101628.09
2023-01-23T06:42:10.240Z,101627.63
2023-01-23T06:44:38.127Z,101637.25
2023-01-23T06:47:06.099Z,101650.31
2023-01-23T06:49:33.915Z,101655.72
2023-01-23T06:52:01.579Z,101656.69
2023-01-23T06:54:29.917Z,101650.25
2023-01-23T06:56:57.604Z,101671.59
2023-01-23T06:59:26.816Z,101668.78
2023-01-23T07:01:54.548Z,101670.81
2023-01-23T07:04:24.633Z,101641.41
2023-01-23T07:06:52.310Z,101679.50
2023-01-23T07:09:20.065Z,101679.50
2023-01-23T07:11:47.913Z,101679.28
2023-01-23T07:14:15.929Z,101685.56
2023-01-23T07:16:45.302Z,101681.16
2023-01-23T07:19:13.423Z,101687.28
2023-01-23T07:21:41.328Z,101695.09
2023-01-23T07:24:09.438Z,101696.94
2023-01-23T07:26:37.290Z,101698.63
2023-01-23T07:29:05.203Z,101693.16
2023-01-23T07:31:33.201Z,101698.50
2023-01-23T07:34:02.786Z,101705.25
2023-01-23T07:36:31.031Z,101709.53
2023-01-23T07:38:59.371Z,101711.31
2023-01-23T07:41:27.276Z,101712.22
2023-01-23T07:43:55.240Z,101708.72
2023-01-23T07:46:23.906Z,101709.50
2023-01-23T07:48:51.785Z,101709.41
2023-01-23T07:51:20.937Z,101718.09
2023-01-23T07:53:50.069Z,101719.34
2023-01-23T07:56:18.131Z,101719.66
2023-01-23T07:58:46.267Z,101717.78
2023-01-23T08:01:14.256Z,101709.31
2023-01-23T08:03:42.111Z,101716.44
2023-01-23T08:06:10.068Z,101719.31
2023-01-23T08:08:39.345Z,101722.91
2023-01-23T08:11:07.445Z,101723.94
2023-01-23T08:13:35.368Z,101736.63
2023-01-23T08:16:03.324Z,101731.72
2023-01-23T08:18:31.436Z,101733.63
2023-01-23T08:21:00.568Z,101729.31
2023-01-23T08:26:05.176Z,101661.84
2023-01-23T08:28:33.061Z,101724.41
2023-01-23T08:31:01.994Z,101731.78
2023-01-23T08:33:29.942Z,101729.78
2023-01-23T08:35:58.699Z,101726.22
2023-01-23T08:38:26.626Z,101717.63
2023-01-23T08:40:55.279Z,101722.28
2023-01-23T08:43:30.891Z,101724.72
2023-01-23T08:45:59.129Z,101721.25
2023-01-23T08:48:27.144Z,101732.28
2023-01-23T08:51:00.026Z,101726.38
2023-01-23T08:53:27.911Z,101733.31
2023-01-23T08:55:59.173Z,101735.19
2023-01-23T08:58:28.451Z,101732.47
2023-01-23T09:00:56.150Z,101739.69
2023-01-23T09:03:24.022Z,101743.31
2023-01-23T09:05:51.716Z,101742.38
2023-01-23T09:08:19.523Z,101741.00
2023-01-23T09:10:47.211Z,101744.72
2023-01-23T09:13:14.889Z,101740.53
2023-01-23T09:15:44.084Z,101739.78
2023-01-23T09:18:11.806Z,101732.16
2023-01-23T09:20:39.763Z,101742.69
2023-01-23T09:23:07.686Z,101729.28
2023-01-23T09:25:35.619Z,101743.63
2023-01-23T09:28:03.517Z,101737.72
2023-01-23T09:30:31.215Z,101752.66
2023-01-23T09:33:00.355Z,101754.31
2023-01-23T09:35:28.175Z,101759.72
2023-01-23T09:38:01.985Z,101753.41
2023-01-23T09:40:31.684Z,101752.66
2023-01-23T09:43:01.921Z,101761.47
2023-01-23T09:45:30.811Z,101767.53
2023-01-23T09:48:15.784Z,101763.66
2023-01-23T09:50:49.043Z,101761.59
2023-01-23T09:53:18.401Z,101777.06
2023-01-23T09:55:49.027Z,101772.53
2023-01-23T09:58:18.997Z,101778.94
2023-01-23T10:00:47.578Z,101776.66
2023-01-23T10:03:16.827Z,101773.31
2023-01-23T10:06:02.180Z,101764.91
2023-01-23T10:08:32.895Z,101776.44
2023-01-23T10:11:01.146Z,101767.00
2023-01-23T10:13:41.514Z,101741.44
2023-01-23T10:16:20.094Z,101774.06
2023-01-23T10:18:54.490Z,101772.34
2023-01-23T10:21:26.333Z,101774.13
2023-01-23T10:24:02.274Z,101767.97
2023-01-23T10:26:31.903Z,101780.59
2023-01-23T10:29:02.726Z,101783.97
2023-01-23T10:31:34.831Z,101796.75
2023-01-23T10:34:07.841Z,101780.28
2023-01-23T10:36:48.012Z,101776.94
2023-01-23T10:39:23.928Z,101785.72
2023-01-23T10:42:01.461Z,101777.13
2023-01-23T10:44:29.976Z,101780.81
2023-01-23T10:46:59.298Z,101771.94
2023-01-23T10:49:32.597Z,101774.47
2023-01-23T10:52:00.541Z,101776.31
2023-01-23T10:54:33.240Z,101778.91
2023-01-23T10:57:02.035Z,101771.16
2023-01-23T10:59:32.548Z,101773.72
2023-01-23T11:02:18.326Z,101778.09
2023-01-23T11:04:48.297Z,101773.50
2023-01-23T11:07:18.047Z,101772.13
2023-01-23T11:09:51.430Z,101772.06
2023-01-23T11:12:21.266Z,101754.41
2023-01-23T11:14:49.237Z,101774.13
2023-01-23T11:17:22.206Z,101767.50
2023-01-23T11:19:53.248Z,101712.53
2023-01-23T11:22:34.270Z,101713.22
2023-01-23T11:25:02.094Z,101752.66
2023-01-23T11:27:31.114Z,101750.13
2023-01-23T11:30:28.592Z,101755.03
2023-01-23T11:32:58.954Z,101751.84
2023-01-23T11:35:32.280Z,101746.75
2023-01-23T11:38:00.245Z,101748.13
2023-01-23T11:40:28.183Z,101743.69
2023-01-23T11:42:55.972Z,101744.06
2023-01-23T11:45:34.070Z,101702.56
2023-01-23T11:48:19.616Z,101729.31
2023-01-23T11:50:55.245Z,101731.16
2023-01-23T11:53:41.446Z,101730.38
2023-01-23T11:56:29.388Z,101726.84
2023-01-23T11:59:33.288Z,101737.44
2023-01-23T12:02:16.165Z,101703.69
2023-01-23T12:04:55.341Z,101733.81
2023-01-23T12:07:24.836Z,101735.88
2023-01-23T12:09:57.760Z,101733.53
2023-01-23T12:12:32.734Z,101728.59
2023-01-23T12:15:04.309Z,101745.94
2023-01-23T12:17:37.358Z,101733.19
2023-01-23T12:20:26.459Z,101720.38
2023-01-23T12:23:16.668Z,101733.75
2023-01-23T12:25:46.696Z,101731.97
2023-01-23T12:28:22.699Z,101728.59
2023-01-23T12:31:06.670Z,101732.75
2023-01-23T12:33:44.546Z,101729.09
2023-01-23T12:36:24.792Z,101739.28
2023-01-23T12:38:57.449Z,101695.03
2023-01-23T12:41:29.766Z,101732.13
2023-01-23T12:44:00.606Z,101717.19
2023-01-23T12:46:33.978Z,101733.28
2023-01-23T12:49:04.213Z,101737.91
2023-01-23T12:51:34.484Z,101745.47
2023-01-23T12:54:03.837Z,101746.75
2023-01-23T12:56:32.449Z,101744.88
2023-01-23T12:59:05.598Z,101748.72
2023-01-23T13:01:44.015Z,101752.25
2023-01-23T13:04:19.699Z,101755.59
2023-01-23T13:07:22.517Z,101750.28
2023-01-23T13:10:06.810Z,101677.31
2023-01-23T13:12:34.975Z,101761.59
2023-01-23T13:15:39.194Z,101755.69
2023-01-23T13:18:22.447Z,101752.13
2023-01-23T13:21:14.052Z,101700.22
2023-01-23T13:23:41.942Z,101735.97
2023-01-23T13:26:28.927Z,101752.59
2023-01-23T13:28:58.600Z,101748.25
2023-01-23T13:31:28.800Z,101746.25
2023-01-23T13:34:06.712Z,101746.56
2023-01-23T13:36:38.603Z,101754.09
2023-01-23T13:39:25.027Z,101756.78
2023-01-23T13:42:44.951Z,101756.91
2023-01-23T13:45:21.168Z,101756.69
2023-01-23T14:22:54.791Z,101769.41
2023-01-23T14:25:27.420Z,101765.09
2023-01-23T14:28:03.417Z,101754.19
2023-01-23T14:30:31.651Z,101772.22
2023-01-23T14:33:00.759Z,101772.09
2023-01-23T14:35:29.755Z,101780.22
2023-01-23T14:37:58.712Z,101757.06
2023-01-23T14:40:28.473Z,101781.69
2023-01-23T14:42:59.940Z,101772.84
2023-01-23T14:45:36.934Z,101778.88
2023-01-23T14:48:07.417Z,101777.91
2023-01-23T14:50:35.714Z,101772.50
2023-01-23T14:53:04.186Z,101786.47
2023-01-23T14:55:32.232Z,101781.97
2023-01-23T14:58:00.658Z,101796.28
2023-01-23T15:00:28.686Z,101788.59
2023-01-23T15:02:56.577Z,101792.16
2023-01-23T15:05:26.917Z,101790.59
2023-01-23T15:07:56.065Z,101791.53
2023-01-23T15:10:25.358Z,101785.34
2023-01-23T15:12:55.079Z,101783.59
2023-01-23T15:15:25.028Z,101770.34
2023-01-23T15:17:53.036Z,101780.19
2023-01-23T15:20:40.577Z,101781.75
2023-01-23T15:23:32.781Z,101763.66
2023-01-23T15:26:11.656Z,101775.09
2023-01-23T15:28:40.660Z,101772.53
2023-01-23T15:31:26.943Z,101772.28
2023-01-23T15:33:54.750Z,101778.63
2023-01-23T15:36:28.241Z,101771.53
2023-01-23T15:38:56.071Z,101783.72
2023-01-23T15:41:39.075Z,101782.88
2023-01-23T15:44:15.263Z,101787.88
2023-01-23T15:46:43.015Z,101788.75
2023-01-23T15:49:23.588Z,101786.09
2023-01-23T15:51:55.623Z,101779.34
2023-01-23T15:54:25.994Z,101797.88
2023-01-23T15:57:05.399Z,101783.91
2023-01-23T15:59:34.239Z,101794.56
2023-01-23T16:02:02.043Z,101792.88
2023-01-23T16:04:29.703Z,101791.91
2023-01-23T16:06:59.189Z,101784.47
2023-01-23T16:12:12.521Z,101776.75
2023-01-23T16:14:40.184Z,101773.31
2023-01-23T16:17:16.336Z,101760.03
2023-01-23T16:19:45.236Z,101770.63
2023-01-23T16:22:15.934Z,101765.38
2023-01-23T16:24:43.659Z,101757.56
2023-01-23T16:27:15.801Z,101752.94
2023-01-23T16:29:44.180Z,101744.03
2023-01-23T16:32:12.209Z,101749.53
2023-01-23T16:34:39.911Z,101741.09
2023-01-23T16:37:07.579Z,101741.84
2023-01-23T16:39:41.570Z,101742.47
2023-01-23T16:42:13.771Z,101744.16
2023-01-23T16:44:41.509Z,101743.34
2023-01-23T16:47:09.176Z,101735.34
2023-01-23T16:49:51.032Z,101741.44
2023-01-23T16:52:20.170Z,101738.72
2023-01-23T16:54:49.258Z,101735.22
2023-01-23T16:57:19.375Z,101741.44
2023-01-23T16:59:48.100Z,101751.53
2023-01-23T17:02:19.658Z,101762.94
2023-01-23T17:04:47.394Z,101762.22
2023-01-23T17:07:15.561Z,101767.50
2023-01-23T17:09:43.252Z,101780.72
2023-01-23T17:12:13.611Z,101776.38
2023-01-23T17:14:41.373Z,101770.28
2023-01-23T17:17:11.948Z,101728.56
2023-01-23T17:19:41.549Z,101776.16
2023-01-23T17:22:11.792Z,101760.66
2023-01-23T17:24:39.515Z,101762.22
2023-01-23T17:27:07.732Z,101774.38
2023-01-23T17:29:36.748Z,101766.66
2023-01-23T17:32:04.800Z,101782.59
2023-01-23T17:34:45.151Z,101755.13
2023-01-23T17:37:20.175Z,101792.78
2023-01-23T17:39:47.926Z,101775.28
2023-01-23T17:42:15.739Z,101765.84
2023-01-23T17:44:45.007Z,101777.41
2023-01-23T17:47:13.055Z,101762.72
2023-01-23T17:49:41.833Z,101765.53
2023-01-23T17:52:11.266Z,101770.16
2023-01-23T17:54:39.394Z,101760.78
2023-01-23T17:57:07.229Z,101750.94
2023-01-23T17:59:35.068Z,101763.59
2023-01-23T18:02:04.148Z,101770.22
2023-01-23T18:04:31.875Z,101763.78
2023-01-23T18:06:59.544Z,101751.53
2023-01-23T18:09:27.761Z,101719.50
2023-01-23T18:11:55.780Z,101756.50
2023-01-23T18:14:35.079Z,101755.91
2023-01-23T18:17:18.074Z,101763.53
2023-01-23T18:19:46.389Z,101770.34
2023-01-23T18:22:14.551Z,101775.41
2023-01-23T18:24:42.942Z,101770.09
2023-01-23T18:27:18.081Z,101773.22
2023-01-23T18:29:51.946Z,101778.63
2023-01-23T18:32:38.583Z,101768.22
2023-01-23T18:35:10.629Z,101754.94
2023-01-23T18:37:41.300Z,101760.34
2023-01-23T18:40:13.387Z,101767.31
2023-01-23T18:42:45.256Z,101793.09
2023-01-23T18:45:18.660Z,101767.69
2023-01-23T18:47:57.223Z,101766.06
2023-01-23T18:50:27.051Z,101762.63
2023-01-23T18:53:08.771Z,101767.69
2023-01-23T18:55:39.400Z,101766.50
2023-01-23T19:00:43.931Z,101740.91
2023-01-23T19:03:14.496Z,101771.91
2023-01-23T19:05:42.724Z,101768.56
2023-01-23T19:08:27.993Z,101766.19
2023-01-23T19:10:56.987Z,101766.94
2023-01-23T19:13:26.321Z,101770.44
2023-01-23T19:15:58.009Z,101769.47
2023-01-23T19:18:40.791Z,101772.91
2023-01-23T19:21:14.342Z,101745.38
2023-01-23T19:23:45.400Z,101765.63
2023-01-23T19:26:13.295Z,101779.88
2023-01-23T19:28:41.438Z,101782.38
2023-01-23T19:31:14.168Z,101802.41
2023-01-23T19:33:43.440Z,101799.91
2023-01-23T19:36:12.917Z,101804.09
2023-01-23T19:38:40.677Z,101815.50
2023-01-23T19:41:19.409Z,101819.88
2023-01-23T19:43:51.184Z,101798.34
2023-01-23T19:46:19.365Z,101807.19
2023-01-23T19:48:48.478Z,101817.56
2023-01-23T19:51:17.338Z,101802.00
2023-01-23T19:53:45.592Z,101821.63
2023-01-23T19:56:14.005Z,101778.63
2023-01-23T19:58:42.490Z,101820.88
2023-01-23T20:01:19.524Z,101820.28
2023-01-23T20:03:48.833Z,101824.66
2023-01-23T20:06:16.595Z,101752.88
2023-01-23T20:08:44.472Z,101823.88
2023-01-23T20:11:12.461Z,101829.09
2023-01-23T20:13:40.914Z,101773.22
2023-01-23T20:16:15.211Z,101807.47
2023-01-23T20:18:43.227Z,101829.78
2023-01-23T20:21:12.487Z,101838.69
2023-01-23T20:23:41.324Z,101835.41
2023-01-23T20:26:09.200Z,101832.72
2023-01-23T20:28:37.141Z,101832.66
2023-01-23T20:31:08.733Z,101806.50
2023-01-23T20:33:36.560Z,101831.75
2023-01-23T20:36:04.785Z,101839.56
2023-01-23T20:38:33.977Z,101841.41
2023-01-23T20:41:04.645Z,101835.06
2023-01-23T20:43:32.459Z,101843.81
2023-01-23T20:46:00.276Z,101832.50
2023-01-23T20:48:28.047Z,101846.47
2023-01-23T20:50:56.217Z,101840.38
2023-01-23T20:53:34.116Z,101829.03
2023-01-23T20:56:07.943Z,101828.00
2023-01-23T20:58:54.270Z,101837.78
2023-01-23T21:01:22.671Z,101836.88
2023-01-23T21:03:50.776Z,101775.59
2023-01-23T21:06:18.925Z,101831.69
2023-01-23T21:08:46.957Z,101832.66
2023-01-23T21:11:16.868Z,101796.09
2023-01-23T21:13:44.627Z,101839.38
2023-01-23T21:16:14.425Z,101838.47
2023-01-23T21:18:44.725Z,101836.09
2023-01-23T21:21:13.279Z,101821.97
2023-01-23T21:23:41.123Z,101814.66
2023-01-23T21:26:08.981Z,101790.16
2023-01-23T21:28:38.970Z,101809.06
2023-01-23T21:31:10.878Z,101808.91
2023-01-23T21:33:40.463Z,101774.59
2023-01-23T21:36:09.273Z,101811.72
2023-01-23T21:38:37.123Z,101808.16
2023-01-23T21:41:05.131Z,101810.56
2023-01-23T21:43:35.552Z,101773.22
2023-01-23T21:46:05.079Z,101823.75
2023-01-23T21:48:33.596Z,101840.28
2023-01-23T21:51:05.953Z,101824.88
2023-01-23T21:53:33.738Z,101819.59
2023-01-23T21:56:01.607Z,101814.09
2023-01-23T21:58:29.547Z,101820.34
2023-01-23T22:01:15.553Z,101817.94
2023-01-23T22:03:44.950Z,101812.41
2023-01-23T22:06:12.938Z,101820.41
2023-01-23T22:08:40.771Z,101826.16
2023-01-23T22:11:09.015Z,101824.38
2023-01-23T22:13:36.916Z,101820.69
2023-01-23T22:16:04.894Z,101823.31
2023-01-23T22:18:32.646Z,101826.66
2023-01-23T22:21:02.818Z,101823.47
2023-01-23T22:23:30.909Z,101829.69
2023-01-23T22:26:00.741Z,101825.94
2023-01-23T22:28:28.789Z,101834.00
2023-01-23T22:30:56.912Z,101823.63
2023-01-23T22:33:30.038Z,101814.78
2023-01-23T22:36:06.187Z,101805.97
2023-01-23T22:38:34.354Z,101813.97
2023-01-23T22:41:03.034Z,101783.28
2023-01-23T22:43:31.045Z,101818.44
2023-01-23T22:46:06.200Z,101785.66
2023-01-23T22:48:35.221Z,101764.31
2023-01-23T22:51:05.008Z,101806.19
2023-01-23T22:53:32.918Z,101814.09
2023-01-23T22:56:00.593Z,101818.44
2023-01-23T22:58:28.412Z,101816.66
2023-01-23T23:00:56.268Z,101821.03
2023-01-23T23:03:23.970Z,101810.63
2023-01-23T23:05:57.746Z,101837.44
2023-01-23T23:08:26.876Z,101820.38
2023-01-23T23:11:01.881Z,101823.72
2023-01-23T23:13:30.161Z,101816.63
2023-01-23T23:15:58.128Z,101790.66
2023-01-23T23:21:01.157Z,101814.91
2023-01-23T23:23:30.251Z,101827.97
2023-01-23T23:25:58.049Z,101826.94
2023-01-23T23:28:26.753Z,101828.63
2023-01-23T23:30:54.502Z,101823.41
2023-01-23T23:33:22.411Z,101821.94
2023-01-23T23:35:50.101Z,101822.47
2023-01-23T23:38:18.066Z,101817.72
2023-01-23T23:40:56.711Z,101817.09
2023-01-23T23:43:24.385Z,101816.22
2023-01-23T23:45:53.058Z,101778.72
2023-01-23T23:48:20.847Z,101821.03
2023-01-23T23:50:48.669Z,101805.19
2023-01-23T23:53:16.371Z,101813.34
2023-01-23T23:55:44.243Z,101815.19
2023-01-23T23:58:13.498Z,101816.06
